createdAt,value
2023-03-15T00:02:06.792Z,5.10
2023-03-15T00:04:34.682Z,5.10
2023-03-15T00:07:04.016Z,5.10
2023-03-15T00:09:31.863Z,5.00
2023-03-15T00:11:59.715Z,4.90
2023-03-15T00:14:27.549Z,4.90
2023-03-15T00:16:55.452Z,4.80
2023-03-15T00:19:23.336Z,4.70
2023-03-15T00:21:51.202Z,4.60
2023-03-15T00:24:20.564Z,4.50
2023-03-15T00:26:48.675Z,4.40
2023-03-15T00:29:16.553Z,4.40
2023-03-15T00:31:44.362Z,4.30
2023-03-15T00:34:13.856Z,4.20
2023-03-15T00:36:43.560Z,4.20
2023-03-15T00:39:11.720Z,4.20
2023-03-15T00:41:40.959Z,4.10
2023-03-15T00:44:08.789Z,4.00
2023-03-15T00:46:36.672Z,3.90
2023-03-15T00:49:05.136Z,3.90
2023-03-15T00:51:33.785Z,3.80
2023-03-15T00:54:01.690Z,3.80
2023-03-15T00:56:30.731Z,3.80
2023-03-15T00:59:00.642Z,3.80
2023-03-15T01:01:29.663Z,3.80
2023-03-15T01:03:57.967Z,3.80
2023-03-15T01:06:27.315Z,3.80
2023-03-15T01:08:55.900Z,3.70
2023-03-15T01:11:24.785Z,3.70
2023-03-15T01:13:52.913Z,3.80
2023-03-15T01:16:22.833Z,3.80
2023-03-15T01:18:51.870Z,3.80
2023-03-15T01:21:20.275Z,3.70
2023-03-15T01:23:48.139Z,3.70
2023-03-15T01:26:16.720Z,3.70
2023-03-15T01:28:44.625Z,3.70
2023-03-15T01:31:15.863Z,3.70
2023-03-15T01:33:45.151Z,3.70
2023-03-15T01:36:13.503Z,3.70
2023-03-15T01:38:41.780Z,3.70
2023-03-15T01:41:10.583Z,3.70
2023-03-15T01:43:38.578Z,3.70
2023-03-15T01:46:07.984Z,3.70
2023-03-15T01:48:37.881Z,3.70
2023-03-15T01:51:08.725Z,3.70
2023-03-15T01:53:37.376Z,3.70
2023-03-15T01:56:06.082Z,3.70
2023-03-15T01:58:36.923Z,3.70
2023-03-15T02:01:04.975Z,3.60
2023-03-15T02:03:35.874Z,3.60
2023-03-15T02:06:05.760Z,3.60
2023-03-15T02:08:38.873Z,3.60
2023-03-15T02:11:07.001Z,3.60
2023-03-15T02:13:35.961Z,3.60
2023-03-15T02:16:06.758Z,3.60
2023-03-15T02:18:36.683Z,3.60
2023-03-15T02:21:09.490Z,3.60
2023-03-15T02:23:39.151Z,3.60
2023-03-15T02:26:12.935Z,3.60
2023-03-15T02:28:42.333Z,3.60
2023-03-15T02:31:10.704Z,3.50
2023-03-15T02:33:41.902Z,3.60
2023-03-15T02:36:12.085Z,3.60
2023-03-15T02:38:39.971Z,3.60
2023-03-15T02:41:08.106Z,3.50
2023-03-15T02:43:36.260Z,3.60
2023-03-15T02:46:06.419Z,3.50
2023-03-15T02:48:35.206Z,3.50
2023-03-15T02:51:03.120Z,3.50
2023-03-15T02:53:31.585Z,3.50
2023-03-15T02:55:59.755Z,3.50
2023-03-15T02:58:27.705Z,3.50
2023-03-15T03:00:55.608Z,3.50
2023-03-15T03:03:24.832Z,3.50
2023-03-15T03:05:52.664Z,3.50
2023-03-15T03:08:20.538Z,3.40
2023-03-15T03:10:48.406Z,3.40
2023-03-15T03:13:16.223Z,3.40
2023-03-15T03:15:45.565Z,3.30
2023-03-15T03:18:13.589Z,3.30
2023-03-15T03:20:46.074Z,3.30
2023-03-15T03:23:13.940Z,3.30
2023-03-15T03:25:41.779Z,3.30
2023-03-15T03:28:09.642Z,3.30
2023-03-15T03:30:37.485Z,3.20
2023-03-15T03:33:05.664Z,3.20
2023-03-15T03:35:33.699Z,3.20
2023-03-15T03:38:02.892Z,3.20
2023-03-15T03:40:30.762Z,3.20
2023-03-15T03:42:58.618Z,3.20
2023-03-15T03:45:26.496Z,3.20
2023-03-15T03:47:54.426Z,3.10
2023-03-15T03:50:22.259Z,3.10
2023-03-15T03:52:50.114Z,3.00
2023-03-15T03:55:19.416Z,3.10
2023-03-15T03:57:47.228Z,3.00
2023-03-15T04:00:15.552Z,3.00
2023-03-15T04:02:43.882Z,3.00
2023-03-15T04:05:12.237Z,3.00
2023-03-15T04:07:41.385Z,2.90
2023-03-15T04:10:09.994Z,3.00
2023-03-15T04:12:39.349Z,2.90
2023-03-15T04:15:07.793Z,2.90
2023-03-15T04:17:35.646Z,2.90
2023-03-15T04:20:05.769Z,2.80
2023-03-15T04:22:34.748Z,2.80
2023-03-15T04:25:03.045Z,2.80
2023-03-15T04:27:32.178Z,2.80
2023-03-15T04:30:05.219Z,2.80
2023-03-15T04:32:33.278Z,2.80
2023-03-15T04:35:02.130Z,2.70
2023-03-15T04:37:30.058Z,2.70
2023-03-15T04:39:57.906Z,2.70
2023-03-15T04:42:26.581Z,2.80
2023-03-15T04:44:54.810Z,2.70
2023-03-15T04:47:24.034Z,2.70
2023-03-15T04:49:51.886Z,2.70
2023-03-15T04:52:19.778Z,2.70
2023-03-15T04:54:47.631Z,2.70
2023-03-15T04:57:15.477Z,2.60
2023-03-15T04:59:43.327Z,2.60
2023-03-15T05:02:11.302Z,2.60
2023-03-15T05:04:40.612Z,2.60
2023-03-15T05:07:09.169Z,2.60
2023-03-15T05:09:39.828Z,2.50
2023-03-15T05:12:08.433Z,2.50
2023-03-15T05:14:36.290Z,2.50
2023-03-15T05:17:04.170Z,2.40
2023-03-15T05:19:34.552Z,2.40
2023-03-15T05:22:04.381Z,2.30
2023-03-15T05:24:32.273Z,2.30
2023-03-15T05:27:00.148Z,2.20
2023-03-15T05:29:28.032Z,2.20
2023-03-15T05:31:55.944Z,2.10
2023-03-15T05:34:24.305Z,2.10
2023-03-15T05:36:52.455Z,2.00
2023-03-15T05:39:23.028Z,2.00
2023-03-15T05:41:51.714Z,2.00
2023-03-15T05:44:19.625Z,1.90
2023-03-15T05:46:47.472Z,1.90
2023-03-15T05:49:15.317Z,1.90
2023-03-15T05:51:43.837Z,1.90
2023-03-15T05:54:11.916Z,1.90
2023-03-15T05:56:41.127Z,1.90
2023-03-15T05:59:08.985Z,1.90
2023-03-15T06:01:36.849Z,1.90
2023-03-15T06:04:04.875Z,1.90
2023-03-15T06:06:33.867Z,1.90
2023-03-15T06:09:01.881Z,1.90
2023-03-15T06:11:29.756Z,1.90
2023-03-15T06:13:58.980Z,1.80
2023-03-15T06:16:26.873Z,1.90
2023-03-15T06:18:54.758Z,1.90
2023-03-15T06:21:22.606Z,1.90
2023-03-15T06:23:50.632Z,1.90
2023-03-15T06:26:19.292Z,1.90
2023-03-15T06:28:47.189Z,1.90
2023-03-15T06:31:16.624Z,2.00
2023-03-15T06:33:44.564Z,2.00
2023-03-15T06:36:12.732Z,2.10
2023-03-15T06:38:41.761Z,2.10
2023-03-15T06:41:09.680Z,2.20
2023-03-15T06:43:37.520Z,2.20
2023-03-15T06:46:05.628Z,2.30
2023-03-15T06:48:34.951Z,2.40
2023-03-15T06:51:04.050Z,2.50
2023-03-15T06:53:31.950Z,2.60
2023-03-15T06:55:59.852Z,2.70
2023-03-15T06:58:27.747Z,2.70
2023-03-15T07:00:55.614Z,2.80
2023-03-15T07:03:23.738Z,2.90
2023-03-15T07:05:54.389Z,2.90
2023-03-15T07:08:22.997Z,3.00
2023-03-15T07:10:51.328Z,3.10
2023-03-15T07:13:20.037Z,3.20
2023-03-15T07:15:52.140Z,3.30
2023-03-15T07:18:20.099Z,3.30
2023-03-15T07:20:47.986Z,3.30
2023-03-15T07:23:17.206Z,3.30
2023-03-15T07:25:54.742Z,3.30
2023-03-15T07:28:23.507Z,3.40
2023-03-15T07:30:55.267Z,3.40
2023-03-15T07:33:24.163Z,3.40
2023-03-15T07:35:53.506Z,3.60
2023-03-15T07:38:23.099Z,3.70
2023-03-15T07:40:50.958Z,3.80
2023-03-15T07:43:18.834Z,3.80
2023-03-15T07:45:46.700Z,3.90
2023-03-15T07:48:14.628Z,3.90
2023-03-15T07:50:42.614Z,4.00
2023-03-15T07:53:10.665Z,4.10
2023-03-15T07:55:39.860Z,4.10
2023-03-15T07:58:07.717Z,4.10
2023-03-15T08:00:35.677Z,4.10
2023-03-15T08:03:03.565Z,4.20
2023-03-15T08:05:31.480Z,4.20
2023-03-15T08:07:59.334Z,4.20
2023-03-15T08:10:27.266Z,4.20
2023-03-15T08:12:56.483Z,4.30
2023-03-15T08:15:24.295Z,4.30
2023-03-15T08:17:52.258Z,4.40
2023-03-15T08:20:20.320Z,4.40
2023-03-15T08:22:49.077Z,4.60
2023-03-15T08:25:17.830Z,4.70
2023-03-15T08:27:45.701Z,4.70
2023-03-15T08:30:16.236Z,4.80
2023-03-15T08:32:44.990Z,4.80
2023-03-15T08:35:15.784Z,4.90
2023-03-15T08:37:47.039Z,4.90
2023-03-15T08:40:15.468Z,4.80
2023-03-15T08:42:43.322Z,4.80
2023-03-15T08:45:11.739Z,4.80
2023-03-15T08:47:41.015Z,4.80
2023-03-15T08:50:10.935Z,5.00
2023-03-15T08:52:39.091Z,5.10
2023-03-15T08:55:07.705Z,5.20
2023-03-15T08:57:35.909Z,5.30
2023-03-15T09:00:09.258Z,5.60
2023-03-15T09:02:37.673Z,5.90
2023-03-15T09:05:07.358Z,5.90
2023-03-15T09:07:35.448Z,5.80
2023-03-15T09:10:05.676Z,5.70
2023-03-15T09:12:33.639Z,5.60
2023-03-15T09:15:01.568Z,5.70
2023-03-15T09:17:29.415Z,5.80
2023-03-15T09:19:57.289Z,6.10
2023-03-15T09:22:38.521Z,6.50
2023-03-15T09:25:08.194Z,6.70
2023-03-15T09:27:36.186Z,7.00
2023-03-15T09:30:04.214Z,6.90
2023-03-15T09:32:36.199Z,6.80
2023-03-15T09:35:04.674Z,6.70
2023-03-15T09:37:33.963Z,6.50
2023-03-15T09:40:02.096Z,6.50
2023-03-15T09:42:35.560Z,6.50
2023-03-15T09:45:08.120Z,6.70
2023-03-15T09:47:41.588Z,6.70
2023-03-15T09:50:15.665Z,6.70
2023-03-15T09:52:48.111Z,7.10
2023-03-15T09:55:17.576Z,7.10
2023-03-15T09:57:48.395Z,6.80
2023-03-15T10:00:18.915Z,6.80
2023-03-15T10:02:50.935Z,6.90
2023-03-15T10:05:20.960Z,7.50
2023-03-15T10:07:50.201Z,7.70
2023-03-15T10:10:19.401Z,7.70
2023-03-15T10:12:51.592Z,7.80
2023-03-15T10:15:24.866Z,7.90
2023-03-15T10:18:01.504Z,8.20
2023-03-15T10:20:34.139Z,8.70
2023-03-15T10:23:06.344Z,9.10
2023-03-15T10:25:35.236Z,9.20
2023-03-15T10:28:05.519Z,9.50
2023-03-15T10:30:34.245Z,9.80
2023-03-15T10:33:03.679Z,10.00
2023-03-15T10:35:32.144Z,10.20
2023-03-15T10:38:00.325Z,10.60
2023-03-15T10:40:43.050Z,10.60
2023-03-15T10:43:15.439Z,10.80
2023-03-15T10:45:43.317Z,10.90
2023-03-15T10:48:11.171Z,11.00
2023-03-15T10:50:39.573Z,10.80
2023-03-15T10:53:11.074Z,10.90
2023-03-15T10:55:43.306Z,11.10
2023-03-15T10:58:21.114Z,11.00
2023-03-15T11:00:52.976Z,11.30
2023-03-15T11:03:21.501Z,11.80
2023-03-15T11:05:49.968Z,12.10
2023-03-15T11:08:19.766Z,12.30
2023-03-15T11:10:48.259Z,12.30
2023-03-15T11:13:22.283Z,12.10
2023-03-15T11:15:54.964Z,11.90
2023-03-15T11:18:26.793Z,12.10
2023-03-15T11:20:56.028Z,12.20
2023-03-15T11:23:26.302Z,12.10
2023-03-15T11:25:54.703Z,11.60
2023-03-15T11:28:25.754Z,11.90
2023-03-15T11:30:53.851Z,11.80
2023-03-15T11:33:27.016Z,12.00
2023-03-15T11:35:57.367Z,11.90
2023-03-15T11:38:28.069Z,12.00
2023-03-15T11:40:57.288Z,12.10
2023-03-15T11:43:29.290Z,12.40
2023-03-15T11:45:58.939Z,12.70
2023-03-15T11:48:29.222Z,12.90
2023-03-15T11:50:57.232Z,13.00
2023-03-15T11:53:26.862Z,12.90
2023-03-15T11:55:54.823Z,12.90
2023-03-15T11:58:32.030Z,13.10
2023-03-15T12:01:02.962Z,13.10
2023-03-15T12:03:38.861Z,13.40
2023-03-15T12:06:12.355Z,13.60
2023-03-15T12:08:45.230Z,13.70
2023-03-15T12:11:13.292Z,13.90
2023-03-15T12:13:51.615Z,14.20
2023-03-15T12:16:21.450Z,14.60
2023-03-15T12:18:50.105Z,14.60
2023-03-15T12:21:19.646Z,14.50
2023-03-15T12:23:49.686Z,14.80
2023-03-15T12:26:24.542Z,15.20
2023-03-15T12:29:03.824Z,15.00
2023-03-15T12:31:44.955Z,15.20
2023-03-15T12:34:16.051Z,15.60
2023-03-15T12:36:47.200Z,15.80
2023-03-15T12:39:23.075Z,16.20
2023-03-15T12:41:51.832Z,16.10
2023-03-15T12:44:24.972Z,16.30
2023-03-15T12:46:59.754Z,16.30
2023-03-15T12:49:32.965Z,16.40
2023-03-15T12:52:02.704Z,16.60
2023-03-15T12:54:33.722Z,16.50
2023-03-15T12:57:03.030Z,16.40
2023-03-15T12:59:42.090Z,16.70
2023-03-15T13:02:35.747Z,16.80
2023-03-15T13:05:20.861Z,17.10
2023-03-15T13:07:54.676Z,16.50
2023-03-15T13:10:36.701Z,15.40
2023-03-15T13:13:09.218Z,15.00
2023-03-15T13:15:42.793Z,15.50
2023-03-15T13:18:18.000Z,15.90
2023-03-15T13:20:53.155Z,16.40
2023-03-15T13:23:21.817Z,16.70
2023-03-15T13:25:55.595Z,17.00
2023-03-15T13:28:24.533Z,16.50
2023-03-15T13:30:54.589Z,15.50
2023-03-15T13:33:24.497Z,14.70
2023-03-15T13:35:57.102Z,14.50
2023-03-15T13:38:34.618Z,14.80
2023-03-15T13:41:03.603Z,14.30
2023-03-15T13:43:32.441Z,14.30
2023-03-15T13:46:01.884Z,15.10
2023-03-15T13:48:31.008Z,15.40
2023-03-15T13:51:03.200Z,15.70
2023-03-15T13:53:48.157Z,16.30
2023-03-15T13:56:18.191Z,16.90
2023-03-15T13:58:46.319Z,17.50
2023-03-15T14:01:16.376Z,17.90
2023-03-15T14:03:47.575Z,18.00
2023-03-15T14:06:21.768Z,18.00
2023-03-15T14:08:49.752Z,18.10
2023-03-15T14:11:19.842Z,17.30
2023-03-15T14:13:48.850Z,17.10
2023-03-15T14:16:27.313Z,17.50
2023-03-15T14:18:55.156Z,17.70
2023-03-15T14:21:31.269Z,17.70
2023-03-15T14:24:06.443Z,16.70
2023-03-15T14:26:41.476Z,15.70
2023-03-15T14:29:16.734Z,16.00
2023-03-15T14:31:50.006Z,16.30
2023-03-15T14:34:23.671Z,16.80
2023-03-15T14:36:54.153Z,17.30
2023-03-15T14:39:25.753Z,17.40
2023-03-15T14:41:53.631Z,17.20
2023-03-15T14:44:21.516Z,17.30
2023-03-15T14:46:50.874Z,17.50
2023-03-15T14:49:22.764Z,17.40
2023-03-15T14:51:53.185Z,17.40
2023-03-15T14:54:21.045Z,17.30
2023-03-15T14:56:48.979Z,17.20
2023-03-15T14:59:17.448Z,16.20
2023-03-15T15:01:48.828Z,15.00
2023-03-15T15:04:18.641Z,14.00
2023-03-15T15:06:51.470Z,13.30
2023-03-15T15:09:20.382Z,12.70
2023-03-15T15:11:48.273Z,12.10
2023-03-15T15:14:16.502Z,11.60
2023-03-15T15:16:44.460Z,11.20
2023-03-15T15:19:12.681Z,10.90
2023-03-15T15:21:42.997Z,10.70
2023-03-15T15:24:14.024Z,10.30
2023-03-15T15:26:41.892Z,10.20
2023-03-15T15:29:14.026Z,9.90
2023-03-15T15:31:42.150Z,9.60
2023-03-15T15:34:10.482Z,9.40
2023-03-15T15:36:40.968Z,9.20
2023-03-15T15:39:16.354Z,8.90
2023-03-15T15:41:44.460Z,8.60
2023-03-15T15:44:14.841Z,8.30
2023-03-15T15:46:42.688Z,8.00
2023-03-15T15:49:10.662Z,7.80
2023-03-15T15:51:39.692Z,7.60
2023-03-15T15:54:07.660Z,7.40
2023-03-15T15:56:40.046Z,7.30
2023-03-15T15:59:10.950Z,7.10
2023-03-15T16:01:49.246Z,7.00
2023-03-15T16:04:25.056Z,6.80
2023-03-15T16:06:53.562Z,6.80
2023-03-15T16:09:22.182Z,6.70
2023-03-15T16:11:51.430Z,6.50
2023-03-15T16:14:19.351Z,6.50
2023-03-15T16:16:48.409Z,6.40
2023-03-15T16:19:16.387Z,6.30
2023-03-15T16:21:45.259Z,6.20
2023-03-15T16:24:15.432Z,6.10
2023-03-15T16:26:44.297Z,6.10
2023-03-15T16:29:18.498Z,6.00
2023-03-15T16:31:46.732Z,6.00
2023-03-15T16:34:15.607Z,5.90
2023-03-15T16:36:45.764Z,5.90
2023-03-15T16:39:15.991Z,5.80
2023-03-15T16:41:43.840Z,5.80
2023-03-15T16:44:12.666Z,5.70
2023-03-15T16:46:41.952Z,5.60
2023-03-15T16:49:10.188Z,5.60
2023-03-15T16:51:38.592Z,5.60
2023-03-15T16:54:19.540Z,5.50
2023-03-15T16:56:49.887Z,5.50
2023-03-15T16:59:18.594Z,5.40
2023-03-15T17:01:49.303Z,5.40
2023-03-15T17:04:17.546Z,5.30
2023-03-15T17:06:46.399Z,5.30
2023-03-15T17:09:16.198Z,5.20
2023-03-15T17:11:45.536Z,5.10
2023-03-15T17:14:14.881Z,5.10
2023-03-15T17:16:42.876Z,5.10
2023-03-15T17:19:13.144Z,5.00
2023-03-15T17:21:41.487Z,5.00
2023-03-15T17:24:10.103Z,4.90
2023-03-15T17:26:38.496Z,4.70
2023-03-15T17:29:06.887Z,4.70
2023-03-15T17:31:35.556Z,4.60
2023-03-15T17:34:03.552Z,4.50
2023-03-15T17:36:34.111Z,4.30
2023-03-15T17:39:02.818Z,4.20
2023-03-15T17:41:31.610Z,4.20
2023-03-15T17:43:59.785Z,4.10
2023-03-15T17:46:30.183Z,4.10
2023-03-15T17:48:58.952Z,4.10
2023-03-15T17:51:28.273Z,4.10
2023-03-15T17:53:59.288Z,4.00
2023-03-15T17:56:27.285Z,4.00
2023-03-15T17:58:55.178Z,4.00
2023-03-15T18:01:24.981Z,3.90
2023-03-15T18:03:52.984Z,3.90
2023-03-15T18:06:21.754Z,3.80
2023-03-15T18:08:49.833Z,3.70
2023-03-15T18:11:23.175Z,3.70
2023-03-15T18:13:51.147Z,3.60
2023-03-15T18:16:19.525Z,3.60
2023-03-15T18:18:47.496Z,3.60
2023-03-15T18:21:16.517Z,3.60
2023-03-15T18:23:44.680Z,3.60
2023-03-15T18:26:13.168Z,3.60
2023-03-15T18:28:42.414Z,3.50
2023-03-15T18:31:12.035Z,3.50
2023-03-15T18:33:39.905Z,3.50
2023-03-15T18:36:08.517Z,3.50
2023-03-15T18:38:36.437Z,3.50
2023-03-15T18:41:04.795Z,3.50
2023-03-15T18:43:32.888Z,3.50
2023-03-15T18:46:02.203Z,3.50
2023-03-15T18:48:40.023Z,3.50
2023-03-15T18:51:12.121Z,3.50
2023-03-15T18:53:40.687Z,3.50
2023-03-15T18:56:09.152Z,3.40
2023-03-15T18:58:37.008Z,3.40
2023-03-15T19:01:06.284Z,3.20
2023-03-15T19:03:34.156Z,3.20
2023-03-15T19:06:04.336Z,3.10
2023-03-15T19:08:32.241Z,3.00
2023-03-15T19:11:00.760Z,2.90
2023-03-15T19:13:28.790Z,2.90
2023-03-15T19:15:56.815Z,2.80
2023-03-15T19:18:26.178Z,2.80
2023-03-15T19:20:54.047Z,2.80
2023-03-15T19:23:22.380Z,2.70
2023-03-15T19:25:50.318Z,2.70
2023-03-15T19:28:18.172Z,2.70
2023-03-15T19:30:46.082Z,2.70
2023-03-15T19:33:13.931Z,2.70
2023-03-15T19:35:43.199Z,2.60
2023-03-15T19:38:11.381Z,2.60
2023-03-15T19:40:39.411Z,2.60
2023-03-15T19:43:07.271Z,2.50
2023-03-15T19:45:35.095Z,2.60
2023-03-15T19:48:02.987Z,2.60
2023-03-15T19:50:33.684Z,2.50
2023-03-15T19:53:05.146Z,2.50
2023-03-15T19:55:35.125Z,2.40
2023-03-15T19:58:02.998Z,2.40
2023-03-15T20:00:31.593Z,2.40
2023-03-15T20:02:59.901Z,2.40
2023-03-15T20:05:27.760Z,2.40
2023-03-15T20:07:55.613Z,2.40
2023-03-15T20:10:24.817Z,2.30
2023-03-15T20:12:58.862Z,2.40
2023-03-15T20:15:28.246Z,2.40
2023-03-15T20:17:57.168Z,2.40
2023-03-15T20:20:25.221Z,2.40
2023-03-15T20:22:53.080Z,2.40
2023-03-15T20:25:21.377Z,2.40
2023-03-15T20:27:50.954Z,2.40
2023-03-15T20:30:19.764Z,2.30
2023-03-15T20:32:47.935Z,2.30
2023-03-15T20:35:16.048Z,2.30
2023-03-15T20:37:43.950Z,2.30
2023-03-15T20:40:13.289Z,2.30
2023-03-15T20:42:41.716Z,2.30
2023-03-15T20:45:12.341Z,2.20
2023-03-15T20:47:41.136Z,2.10
2023-03-15T20:50:09.753Z,2.00
2023-03-15T20:52:37.608Z,1.90
2023-03-15T20:55:07.869Z,1.80
2023-03-15T20:57:36.351Z,1.70
2023-03-15T21:00:12.182Z,1.60
2023-03-15T21:02:41.503Z,1.50
2023-03-15T21:05:10.407Z,1.50
2023-03-15T21:07:38.341Z,1.40
2023-03-15T21:10:06.632Z,1.30
2023-03-15T21:12:34.506Z,1.30
2023-03-15T21:15:02.758Z,1.20
2023-03-15T21:17:30.614Z,1.10
2023-03-15T21:20:00.526Z,1.10
2023-03-15T21:22:28.544Z,1.00
2023-03-15T21:24:56.564Z,0.90
2023-03-15T21:27:26.112Z,0.90
2023-03-15T21:29:54.256Z,0.90
2023-03-15T21:32:22.169Z,0.90
2023-03-15T21:34:50.022Z,0.90
2023-03-15T21:37:19.346Z,0.90
2023-03-15T21:39:47.210Z,0.90
2023-03-15T21:42:15.074Z,0.90
2023-03-15T21:44:43.021Z,0.90
2023-03-15T21:47:11.537Z,0.90
2023-03-15T21:49:39.842Z,0.90
2023-03-15T21:52:07.721Z,0.90
2023-03-15T21:54:37.201Z,0.90
2023-03-15T21:57:05.865Z,0.80
2023-03-15T21:59:33.959Z,0.80
2023-03-15T22:02:02.652Z,0.70
2023-03-15T22:04:33.873Z,0.70
2023-03-15T22:07:01.762Z,0.70
2023-03-15T22:09:29.591Z,0.80
2023-03-15T22:11:58.797Z,0.80
2023-03-15T22:14:26.939Z,0.80
2023-03-15T22:16:54.851Z,0.80
2023-03-15T22:19:22.760Z,0.90
2023-03-15T22:21:50.966Z,0.90
2023-03-15T22:24:18.844Z,0.90
2023-03-15T22:26:46.707Z,0.90
2023-03-15T22:29:15.924Z,0.90
2023-03-15T22:31:43.794Z,0.90
2023-03-15T22:34:11.641Z,0.90
2023-03-15T22:36:39.482Z,0.90
2023-03-15T22:39:07.644Z,0.90
2023-03-15T22:41:35.621Z,0.90
2023-03-15T22:44:03.488Z,0.90
2023-03-15T22:46:35.019Z,0.90
2023-03-15T22:49:03.342Z,0.90
2023-03-15T22:51:31.254Z,0.90
2023-03-15T22:53:59.097Z,0.90
2023-03-15T22:56:26.940Z,0.90
2023-03-15T22:58:55.574Z,0.90
2023-03-15T23:01:23.459Z,0.90
2023-03-15T23:03:52.754Z,0.90
2023-03-15T23:06:20.736Z,0.90
2023-03-15T23:08:48.739Z,0.90
2023-03-15T23:11:16.574Z,0.90
2023-03-15T23:13:48.247Z,0.90
2023-03-15T23:16:16.656Z,0.90
2023-03-15T23:18:44.788Z,0.90
2023-03-15T23:21:15.531Z,0.90
2023-03-15T23:23:43.774Z,0.90
2023-03-15T23:26:12.814Z,0.90
2023-03-15T23:28:40.692Z,0.90
2023-03-15T23:31:08.565Z,0.90
2023-03-15T23:33:36.486Z,0.90
2023-03-15T23:36:05.652Z,0.90
2023-03-15T23:38:35.462Z,0.90
2023-03-15T23:41:04.912Z,0.90
2023-03-15T23:43:33.442Z,0.90
2023-03-15T23:46:03.448Z,0.90
2023-03-15T23:48:35.613Z,0.90
2023-03-15T23:51:04.013Z,0.90
2023-03-15T23:53:32.174Z,0.90
2023-03-15T23:56:01.444Z,1.00
2023-03-15T23:58:29.332Z,1.00
